CheckWX is a tool to help pilots better visualize weather data.  It is not intended as a substitute for an official pre-flight weather briefing.

22:40:07 UTC

KAVP METAR
Wilkes-Barre / Scranton International Airport
Wilkes-Barre/Scranton, Pennsylvania, USA
Current

46 mins ago

KAVP 312154Z VRB04KT 10SM OVC035 09/02 A2990 RMK AO2 SLP127 T00890022
Observed
Mar-31 @ 21:54 UTC
Wind
  • Variable at 4 KTS
Visibility
10 SM
Flight Rules
VFR
Cloud Levels
  • Overcast at 3,500' AGL
Temperature
C / 48°F
Dewpoint
C / 36°F
Humidity
62%
Altimeter
29.9" Hg
Pressure
1012.52 hPa
Previous

2 hours ago

KAVP 312054Z 06003KT 10SM OVC032 09/02 A2990 RMK AO2 SLP126 T00940017 56021
Observed
Mar-31 @ 20:54 UTC
Wind
  • 060° at 3 KTS
Visibility
10 SM
Flight Rules
VFR
Cloud Levels
  • Overcast at 3,200' AGL
Temperature
C / 48°F
Dewpoint
C / 36°F
Humidity
62%
Altimeter
29.9" Hg
Pressure
1012.52 hPa
Previous

3 hours ago

KAVP 312002Z 02004KT 10SM OVC030 10/02 A2991 RMK AO2 T01000022
Observed
Mar-31 @ 20:02 UTC
Wind
  • 020° at 4 KTS
Visibility
10 SM
Flight Rules
MVFR
Cloud Levels
  • Overcast at 3,000' AGL
Temperature
10°C / 50°F
Dewpoint
C / 36°F
Humidity
58%
Altimeter
29.91" Hg
Pressure
1012.92 hPa